Time,TemperatureF,DewpointF,PressureIn,WindDirection,WindDirectionDegrees,WindSpeedMPH,WindSpeedGustMPH,Humidity,HourlyPrecipIn,Conditions,Clouds,dailyrainin,SoftwareType,DateUTC
2013-01-28 00:00:00,20.3,-15.4,30.39,NE,51,2.0,6.0,19,0.00,,,0.00,Weather View 32 v70,2013-01-28 05:00:00,
2013-01-28 00:01:00,19.9,-16.6,30.42,NNE,20,2.0,6.0,18,0.00,,,0.00,Weather View 32 v70,2013-01-28 05:01:00,
2013-01-28 00:04:00,19.6,-15.8,30.39,NE,47,2.0,6.0,19,0.00,,,0.00,Weather View 32 v70,2013-01-28 05:04:00,
2013-01-28 00:09:00,18.7,-13.5,30.39,NNE,18,4.0,6.0,22,0.00,,,0.00,Weather View 32 v70,2013-01-28 05:09:00,
2013-01-28 00:14:00,18.3,-10.9,30.39,NNE,17,5.0,6.0,26,0.00,,,0.00,Weather View 32 v70,2013-01-28 05:14:00,
2013-01-28 00:19:00,18.1,-13.5,30.39,NNE,19,4.0,6.0,23,0.00,,,0.00,Weather View 32 v70,2013-01-28 05:19:00,
2013-01-28 00:24:00,17.8,-13.5,30.39,North,2,1.0,6.0,23,0.00,,,0.00,Weather View 32 v70,2013-01-28 05:24:00,
2013-01-28 00:29:00,18.3,-11.5,30.39,NNE,19,3.0,6.0,25,0.00,,,0.00,Weather View 32 v70,2013-01-28 05:29:00,
2013-01-28 00:34:00,18.1,-11.7,30.39,NE,36,3.0,6.0,25,0.00,,,0.00,Weather View 32 v70,2013-01-28 05:34:00,
2013-01-28 00:39:00,17.8,-12.0,30.39,NW,315,1.0,6.0,25,0.00,,,0.00,Weather View 32 v70,2013-01-28 05:39:00,
2013-01-28 00:44:00,18.3,-10.5,30.39,North,5,3.0,6.0,26,0.00,,,0.00,Weather View 32 v70,2013-01-28 05:44:00,
2013-01-28 00:49:00,17.4,-11.6,30.39,North,2,2.0,6.0,26,0.00,,,0.00,Weather View 32 v70,2013-01-28 05:49:00,
2013-01-28 00:54:00,17.6,-9.8,30.39,NE,40,4.0,6.0,28,0.00,,,0.00,Weather View 32 v70,2013-01-28 05:54:00,
2013-01-28 00:59:00,17.4,-10.7,30.39,NNW,327,1.0,6.0,27,0.00,,,0.00,Weather View 32 v70,2013-01-28 05:59:00,
2013-01-28 01:04:00,17.2,-11.9,30.39,NNE,22,1.0,6.0,26,0.00,,,0.00,Weather View 32 v70,2013-01-28 06:04:00,
2013-01-28 01:09:00,16.5,-10.6,30.39,WSW,253,0.0,6.0,29,0.00,,,0.00,Weather View 32 v70,2013-01-28 06:09:00,
2013-01-28 01:14:00,16.5,-9.9,30.39,SW,231,1.0,6.0,30,0.00,,,0.00,Weather View 32 v70,2013-01-28 06:14:00,
2013-01-28 01:19:00,17.8,-9.3,30.39,ENE,62,3.0,6.0,29,0.00,,,0.00,Weather View 32 v70,2013-01-28 06:19:00,
2013-01-28 01:24:00,17.8,-9.8,30.39,NNE,33,2.0,5.0,28,0.00,,,0.00,Weather View 32 v70,2013-01-28 06:24:00,
2013-01-28 01:29:00,17.8,-10.9,30.39,North,4,4.0,6.0,27,0.00,,,0.00,Weather View 32 v70,2013-01-28 06:29:00,
2013-01-28 01:34:00,18.1,-10.8,30.39,NNE,33,5.0,7.0,26,0.00,,,0.00,Weather View 32 v70,2013-01-28 06:34:00,
2013-01-28 01:39:00,18.1,-10.8,30.42,ENE,59,5.0,7.0,26,0.00,,,0.00,Weather View 32 v70,2013-01-28 06:39:00,
2013-01-28 01:44:00,17.8,-11.0,30.39,SE,137,2.0,7.0,26,0.00,,,0.00,Weather View 32 v70,2013-01-28 06:44:00,
2013-01-28 01:49:00,18.3,-9.7,30.39,East,83,4.0,7.0,28,0.00,,,0.00,Weather View 32 v70,2013-01-28 06:49:00,
2013-01-28 01:54:00,18.3,-9.3,30.39,ESE,108,1.0,7.0,28,0.00,,,0.00,Weather View 32 v70,2013-01-28 06:54:00,
2013-01-28 01:59:00,17.6,-8.9,30.39,ENE,72,1.0,7.0,30,0.00,,,0.00,Weather View 32 v70,2013-01-28 06:59:00,
2013-01-28 02:04:00,18.7,-9.7,30.36,ENE,73,4.0,7.0,27,0.00,,,0.00,Weather View 32 v70,2013-01-28 07:04:00,
2013-01-28 02:09:00,18.7,-9.1,30.39,ENE,65,3.0,7.0,28,0.00,,,0.00,Weather View 32 v70,2013-01-28 07:09:00,
2013-01-28 02:14:00,19.2,-10.9,30.39,ENE,63,3.0,7.0,25,0.00,,,0.00,Weather View 32 v70,2013-01-28 07:14:00,
2013-01-28 02:19:00,19.4,-10.9,30.33,East,80,3.0,7.0,25,0.00,,,0.00,Weather View 32 v70,2013-01-28 07:19:00,
2013-01-28 02:24:00,18.5,-10.9,30.39,ESE,115,4.0,7.0,26,0.00,,,0.00,Weather View 32 v70,2013-01-28 07:24:00,
2013-01-28 02:29:00,19.2,-10.5,30.39,ENE,73,5.0,7.0,26,0.00,,,0.00,Weather View 32 v70,2013-01-28 07:29:00,
2013-01-28 02:34:00,19.2,-10.2,30.36,East,81,3.0,6.0,26,0.00,,,0.00,Weather View 32 v70,2013-01-28 07:34:00,
2013-01-28 02:39:00,19.4,-10.6,30.36,ENE,78,3.0,6.0,25,0.00,,,0.00,Weather View 32 v70,2013-01-28 07:39:00,
2013-01-28 02:44:00,19.2,-10.3,30.36,East,84,4.0,6.0,26,0.00,,,0.00,Weather View 32 v70,2013-01-28 07:44:00,
2013-01-28 02:49:00,19.4,-10.2,30.36,ENE,64,3.0,6.0,26,0.00,,,0.00,Weather View 32 v70,2013-01-28 07:49:00,
2013-01-28 02:54:00,19.6,-10.5,30.36,ENE,72,4.0,6.0,25,0.00,,,0.00,Weather View 32 v70,2013-01-28 07:54:00,
2013-01-28 02:59:00,19.0,-9.9,30.36,ESE,102,2.0,6.0,26,0.00,,,0.00,Weather View 32 v70,2013-01-28 07:59:00,
2013-01-28 03:04:00,19.6,-10.6,30.36,ENE,76,4.0,6.0,25,0.00,,,0.00,Weather View 32 v70,2013-01-28 08:04:00,
2013-01-28 03:09:00,19.6,-10.6,30.36,ENE,74,3.0,6.0,25,0.00,,,0.00,Weather View 32 v70,2013-01-28 08:09:00,
2013-01-28 03:14:00,19.2,-10.9,30.39,East,100,3.0,6.0,25,0.00,,,0.00,Weather View 32 v70,2013-01-28 08:14:00,
2013-01-28 03:19:00,19.2,-11.5,30.39,ENE,78,2.0,6.0,24,0.00,,,0.00,Weather View 32 v70,2013-01-28 08:19:00,
2013-01-28 03:24:00,19.9,-11.2,30.39,ENE,72,3.0,6.0,24,0.00,,,0.00,Weather View 32 v70,2013-01-28 08:24:00,
2013-01-28 03:29:00,20.1,-9.7,30.36,ENE,70,4.0,6.0,26,0.00,,,0.00,Weather View 32 v70,2013-01-28 08:29:00,
2013-01-28 03:34:00,19.9,-8.2,30.36,NNE,26,4.0,6.0,28,0.00,,,0.00,Weather View 32 v70,2013-01-28 08:34:00,
2013-01-28 03:39:00,18.5,-8.4,30.36,North,10,4.0,6.0,29,0.00,,,0.00,Weather View 32 v70,2013-01-28 08:39:00,
2013-01-28 03:44:00,18.1,-7.6,30.36,NNE,13,5.0,6.0,31,0.00,,,0.00,Weather View 32 v70,2013-01-28 08:44:00,
2013-01-28 03:49:00,17.6,-8.4,30.36,North,355,2.0,6.0,30,0.00,,,0.00,Weather View 32 v70,2013-01-28 08:49:00,
2013-01-28 03:54:00,17.2,-8.0,30.36,NNW,333,2.0,6.0,31,0.00,,,0.00,Weather View 32 v70,2013-01-28 08:54:00,
2013-01-28 03:59:00,17.2,-8.0,30.36,North,354,3.0,6.0,31,0.00,,,0.00,Weather View 32 v70,2013-01-28 08:59:00,
2013-01-28 04:04:00,17.4,-8.3,30.39,North,2,3.0,6.0,31,0.00,,,0.00,Weather View 32 v70,2013-01-28 09:04:00,
2013-01-28 04:09:00,17.4,-8.7,30.36,NNE,13,3.0,6.0,30,0.00,,,0.00,Weather View 32 v70,2013-01-28 09:09:00,
2013-01-28 04:14:00,17.6,-9.6,30.36,North,2,2.0,6.0,29,0.00,,,0.00,Weather View 32 v70,2013-01-28 09:14:00,
2013-01-28 04:19:00,17.6,-9.3,30.36,North,1,1.0,6.0,29,0.00,,,0.00,Weather View 32 v70,2013-01-28 09:19:00,
2013-01-28 04:24:00,18.3,-7.7,30.39,NE,45,1.0,6.0,30,0.00,,,0.00,Weather View 32 v70,2013-01-28 09:24:00,
2013-01-28 04:29:00,16.9,-9.3,30.36,West,275,1.0,6.0,30,0.00,,,0.00,Weather View 32 v70,2013-01-28 09:29:00,
2013-01-28 04:34:00,17.2,-8.8,30.36,ENE,77,1.0,6.0,30,0.00,,,0.00,Weather View 32 v70,2013-01-28 09:34:00,
2013-01-28 04:39:00,18.1,-7.6,30.36,NE,34,3.0,6.0,31,0.00,,,0.00,Weather View 32 v70,2013-01-28 09:39:00,
2013-01-28 04:44:00,17.2,-9.0,30.39,North,1,4.0,6.0,30,0.00,,,0.00,Weather View 32 v70,2013-01-28 09:44:00,
2013-01-28 04:49:00,17.2,-8.0,30.36,NNE,22,5.0,6.0,31,0.00,,,0.00,Weather View 32 v70,2013-01-28 09:49:00,
2013-01-28 04:54:00,17.6,-6.7,30.36,NNE,30,2.0,6.0,33,0.00,,,0.00,Weather View 32 v70,2013-01-28 09:54:00,
2013-01-28 04:59:00,17.8,-7.8,30.36,NNE,30,2.0,6.0,31,0.00,,,0.00,Weather View 32 v70,2013-01-28 09:59:00,
2013-01-28 05:04:00,18.1,-6.8,30.36,NE,34,3.0,6.0,32,0.00,,,0.00,Weather View 32 v70,2013-01-28 10:04:00,
2013-01-28 05:09:00,18.5,-7.3,30.33,ENE,59,4.0,6.0,31,0.00,,,0.00,Weather View 32 v70,2013-01-28 10:09:00,
2013-01-28 05:14:00,18.3,-8.0,30.36,NNE,17,4.0,6.0,30,0.00,,,0.00,Weather View 32 v70,2013-01-28 10:14:00,
2013-01-28 05:19:00,16.9,-9.0,30.36,North,351,4.0,6.0,30,0.00,,,0.00,Weather View 32 v70,2013-01-28 10:19:00,
2013-01-28 05:24:00,16.9,-7.3,30.36,NNE,24,4.0,6.0,33,0.00,,,0.00,Weather View 32 v70,2013-01-28 10:24:00,
2013-01-28 05:29:00,17.6,-5.6,30.33,NNE,25,2.0,6.0,35,0.00,,,0.00,Weather View 32 v70,2013-01-28 10:29:00,
2013-01-28 05:34:00,18.1,-5.5,30.33,NNE,24,2.0,6.0,34,0.00,,,0.00,Weather View 32 v70,2013-01-28 10:34:00,
2013-01-28 05:39:00,18.3,-6.6,30.33,NNE,13,2.0,6.0,32,0.00,,,0.00,Weather View 32 v70,2013-01-28 10:39:00,
2013-01-28 05:44:00,19.0,-6.4,30.33,East,88,2.0,6.0,31,0.00,,,0.00,Weather View 32 v70,2013-01-28 10:44:00,
2013-01-28 05:49:00,19.2,-5.5,30.30,ENE,73,3.0,6.0,33,0.00,,,0.00,Weather View 32 v70,2013-01-28 10:49:00,
2013-01-28 05:54:00,19.4,-6.9,30.33,ESE,106,5.0,6.0,30,0.00,,,0.00,Weather View 32 v70,2013-01-28 10:54:00,
2013-01-28 05:59:00,19.4,-5.6,30.33,East,80,2.0,6.0,32,0.00,,,0.00,Weather View 32 v70,2013-01-28 10:59:00,
2013-01-28 06:04:00,19.6,-5.9,30.33,NE,45,2.0,5.0,31,0.00,,,0.00,Weather View 32 v70,2013-01-28 11:04:00,
2013-01-28 06:09:00,19.4,-7.5,30.33,East,83,2.0,5.0,29,0.00,,,0.00,Weather View 32 v70,2013-01-28 11:09:00,
2013-01-28 06:14:00,19.6,-6.8,30.33,ENE,69,3.0,5.0,30,0.00,,,0.00,Weather View 32 v70,2013-01-28 11:14:00,
2013-01-28 06:19:00,20.1,-6.6,30.33,East,80,3.0,5.0,30,0.00,,,0.00,Weather View 32 v70,2013-01-28 11:19:00,
2013-01-28 06:24:00,20.3,-6.9,30.33,ENE,77,2.0,5.0,29,0.00,,,0.00,Weather View 32 v70,2013-01-28 11:24:00,
2013-01-28 06:29:00,20.3,-6.8,30.33,ENE,73,3.0,5.0,29,0.00,,,0.00,Weather View 32 v70,2013-01-28 11:29:00,
2013-01-28 06:34:00,20.3,-6.7,30.33,NE,43,2.0,5.0,29,0.00,,,0.00,Weather View 32 v70,2013-01-28 11:34:00,
2013-01-28 06:39:00,19.0,-6.7,30.36,NNE,32,2.0,5.0,31,0.00,,,0.00,Weather View 32 v70,2013-01-28 11:39:00,
2013-01-28 06:44:00,18.5,-6.4,30.36,NNE,16,3.0,5.0,32,0.00,,,0.00,Weather View 32 v70,2013-01-28 11:44:00,
2013-01-28 06:49:00,19.0,-5.2,30.36,NNE,19,3.0,5.0,33,0.00,,,0.00,Weather View 32 v70,2013-01-28 11:49:00,
2013-01-28 06:54:00,19.6,-5.5,30.36,ENE,66,2.0,5.0,32,0.00,,,0.00,Weather View 32 v70,2013-01-28 11:54:00,
2013-01-28 07:00:00,20.5,-5.4,30.33,ENE,65,2.0,5.0,31,0.00,,,0.00,Weather View 32 v70,2013-01-28 12:00:00,
2013-01-28 07:05:00,21.0,-5.4,30.33,ENE,72,4.0,5.0,30,0.00,,,0.00,Weather View 32 v70,2013-01-28 12:05:00,
2013-01-28 07:10:00,20.6,-5.8,30.33,ENE,66,2.0,5.0,30,0.00,,,0.00,Weather View 32 v70,2013-01-28 12:10:00,
2013-01-28 07:15:00,20.3,-6.0,30.33,ENE,58,3.0,5.0,30,0.00,,,0.00,Weather View 32 v70,2013-01-28 12:15:00,
2013-01-28 07:19:00,20.3,-5.3,30.33,ENE,61,2.0,5.0,31,0.00,,,0.00,Weather View 32 v70,2013-01-28 12:19:00,
2013-01-28 07:24:00,20.5,-5.4,30.33,NE,53,3.0,5.0,31,0.00,,,0.00,Weather View 32 v70,2013-01-28 12:24:00,
2013-01-28 07:30:00,20.6,-5.0,30.33,ENE,62,3.0,5.0,31,0.00,,,0.00,Weather View 32 v70,2013-01-28 12:30:00,
2013-01-28 07:35:00,21.2,-5.3,30.33,East,88,2.0,5.0,30,0.00,,,0.00,Weather View 32 v70,2013-01-28 12:35:00,
2013-01-28 07:40:00,21.5,-5.4,30.33,East,86,2.0,5.0,30,0.00,,,0.00,Weather View 32 v70,2013-01-28 12:40:00,
2013-01-28 07:45:00,22.1,-4.4,30.33,ENE,76,2.0,5.0,30,0.00,,,0.00,Weather View 32 v70,2013-01-28 12:45:00,
2013-01-28 07:50:00,22.4,-4.3,30.33,ENE,73,2.0,5.0,30,0.00,,,0.00,Weather View 32 v70,2013-01-28 12:50:00,
2013-01-28 07:54:00,22.6,-5.2,30.36,ENE,74,2.0,4.0,29,0.00,,,0.00,Weather View 32 v70,2013-01-28 12:54:00,
2013-01-28 07:59:00,22.3,-6.5,30.33,East,99,3.0,4.0,27,0.00,,,0.00,Weather View 32 v70,2013-01-28 12:59:00,
2013-01-28 08:04:00,21.0,-6.4,30.36,ESE,108,2.0,4.0,29,0.00,,,0.00,Weather View 32 v70,2013-01-28 13:04:00,
2013-01-28 08:09:00,21.0,-5.1,30.33,East,99,2.0,4.0,31,0.00,,,0.00,Weather View 32 v70,2013-01-28 13:09:00,
2013-01-28 08:14:00,23.0,-5.2,30.33,ESE,111,4.0,4.0,28,0.00,,,0.00,Weather View 32 v70,2013-01-28 13:14:00,
2013-01-28 08:20:00,23.5,-4.9,30.33,East,100,2.0,5.0,28,0.00,,,0.00,Weather View 32 v70,2013-01-28 13:20:00,
2013-01-28 08:25:00,23.5,-5.1,30.33,ESE,106,4.0,5.0,28,0.00,,,0.00,Weather View 32 v70,2013-01-28 13:25:00,
2013-01-28 08:30:00,24.1,-5.1,30.36,ESE,102,4.0,5.0,27,0.00,,,0.00,Weather View 32 v70,2013-01-28 13:30:00,
2013-01-28 08:35:00,24.2,-4.0,30.33,ESE,109,5.0,5.0,28,0.00,,,0.00,Weather View 32 v70,2013-01-28 13:35:00,
2013-01-28 08:40:00,23.9,-5.4,30.36,East,90,4.0,6.0,27,0.00,,,0.00,Weather View 32 v70,2013-01-28 13:40:00,
2013-01-28 08:45:00,25.1,-5.3,30.33,East,86,3.0,6.0,26,0.00,,,0.00,Weather View 32 v70,2013-01-28 13:45:00,
2013-01-28 08:50:00,24.4,-7.6,30.36,ESE,108,5.0,6.0,24,0.00,,,0.00,Weather View 32 v70,2013-01-28 13:50:00,
2013-01-28 08:55:00,24.4,-6.1,30.33,ESE,114,4.0,6.0,25,0.00,,,0.00,Weather View 32 v70,2013-01-28 13:55:00,
2013-01-28 09:00:00,26.6,-2.8,30.30,East,82,2.0,6.0,27,0.00,,,0.00,Weather View 32 v70,2013-01-28 14:00:00,
2013-01-28 09:05:00,27.3,2.0,30.30,ENE,66,2.0,6.0,33,0.00,,,0.00,Weather View 32 v70,2013-01-28 14:05:00,
2013-01-28 09:10:00,25.5,-6.7,30.33,East,100,4.0,6.0,24,0.00,,,0.00,Weather View 32 v70,2013-01-28 14:10:00,
2013-01-28 09:15:00,26.4,-8.2,30.30,SSE,152,6.0,6.0,21,0.00,,,0.00,Weather View 32 v70,2013-01-28 14:15:00,
2013-01-28 09:20:00,26.9,-6.0,30.30,SSE,163,6.0,9.0,23,0.00,,,0.00,Weather View 32 v70,2013-01-28 14:20:00,
2013-01-28 09:25:00,25.5,-10.6,30.30,SSE,163,7.0,9.0,19,0.00,,,0.00,Weather View 32 v70,2013-01-28 14:25:00,
2013-01-28 09:30:00,26.9,-9.4,30.30,SSE,152,7.0,9.0,19,0.00,,,0.00,Weather View 32 v70,2013-01-28 14:30:00,
2013-01-28 09:35:00,28.6,-8.1,30.30,SSE,149,6.0,9.0,19,0.00,,,0.00,Weather View 32 v70,2013-01-28 14:35:00,
2013-01-28 09:40:00,27.7,-12.6,30.30,SSE,152,4.0,9.0,16,0.00,,,0.00,Weather View 32 v70,2013-01-28 14:40:00,
2013-01-28 09:45:00,28.0,-14.5,30.30,SSE,158,4.0,9.0,14,0.00,,,0.00,Weather View 32 v70,2013-01-28 14:45:00,
2013-01-28 09:50:00,28.4,-14.6,30.30,SSE,162,4.0,9.0,14,0.00,,,0.00,Weather View 32 v70,2013-01-28 14:50:00,
2013-01-28 09:55:00,28.9,-13.0,30.30,SSE,153,3.0,9.0,15,0.00,,,0.00,Weather View 32 v70,2013-01-28 14:55:00,
2013-01-28 10:00:00,29.5,-13.8,30.30,SSE,163,4.0,10.0,14,0.00,,,0.00,Weather View 32 v70,2013-01-28 15:00:00,
2013-01-28 10:05:00,30.2,-16.8,30.30,SSE,157,2.0,10.0,12,0.00,,,0.00,Weather View 32 v70,2013-01-28 15:05:00,
2013-01-28 10:10:00,29.3,-19.6,30.30,South,170,2.0,10.0,11,0.00,,,0.00,Weather View 32 v70,2013-01-28 15:10:00,
2013-01-28 10:15:00,30.5,-10.3,30.30,SE,146,4.0,10.0,16,0.00,,,0.00,Weather View 32 v70,2013-01-28 15:15:00,
2013-01-28 10:20:00,28.9,-17.5,30.30,South,175,3.0,10.0,12,0.00,,,0.00,Weather View 32 v70,2013-01-28 15:20:00,
2013-01-28 10:25:00,29.6,-12.5,30.30,SE,138,4.0,10.0,15,0.00,,,0.00,Weather View 32 v70,2013-01-28 15:25:00,
2013-01-28 10:30:00,28.4,-17.9,30.30,South,175,4.0,10.0,12,0.00,,,0.00,Weather View 32 v70,2013-01-28 15:30:00,
2013-01-28 10:35:00,29.1,-12.8,30.27,SE,128,5.0,10.0,15,0.00,,,0.00,Weather View 32 v70,2013-01-28 15:35:00,
2013-01-28 10:40:00,29.6,-13.9,30.33,ESE,119,6.0,10.0,14,0.00,,,0.00,Weather View 32 v70,2013-01-28 15:40:00,
2013-01-28 10:45:00,28.9,-13.8,30.30,SE,128,9.0,12.0,14,0.00,,,0.00,Weather View 32 v70,2013-01-28 15:45:00,
2013-01-28 10:50:00,29.3,-13.9,30.30,SE,125,11.0,12.0,14,0.00,,,0.00,Weather View 32 v70,2013-01-28 15:50:00,
2013-01-28 10:55:00,30.0,-13.2,30.30,SE,132,8.0,12.0,14,0.00,,,0.00,Weather View 32 v70,2013-01-28 15:55:00,
2013-01-28 11:00:00,30.5,-10.1,30.27,SE,126,6.0,12.0,16,0.00,,,0.00,Weather View 32 v70,2013-01-28 16:00:00,
2013-01-28 11:05:00,29.8,-12.4,30.27,South,183,4.0,12.0,15,0.00,,,0.00,Weather View 32 v70,2013-01-28 16:05:00,
2013-01-28 11:10:00,30.0,-11.2,30.27,South,189,4.0,12.0,16,0.00,,,0.00,Weather View 32 v70,2013-01-28 16:10:00,
2013-01-28 11:15:00,29.6,-9.7,30.27,SW,216,9.0,12.0,17,0.00,,,0.00,Weather View 32 v70,2013-01-28 16:15:00,
2013-01-28 11:20:00,30.7,-6.6,30.27,South,178,3.0,15.0,19,0.00,,,0.00,Weather View 32 v70,2013-01-28 16:20:00,
2013-01-28 11:25:00,31.1,-7.4,30.27,SSW,197,5.0,15.0,18,0.00,,,0.00,Weather View 32 v70,2013-01-28 16:25:00,
2013-01-28 11:30:00,31.8,-5.8,30.27,South,187,2.0,15.0,19,0.00,,,0.00,Weather View 32 v70,2013-01-28 16:30:00,
2013-01-28 11:35:00,32.2,-6.7,30.24,SW,223,4.0,15.0,18,0.00,,,0.00,Weather View 32 v70,2013-01-28 16:35:00,
2013-01-28 11:40:00,30.9,-2.6,30.21,WSW,247,6.0,15.0,23,0.00,,,0.00,Weather View 32 v70,2013-01-28 16:40:00,
2013-01-28 11:45:00,31.1,-2.2,30.21,SSE,168,3.0,15.0,23,0.00,,,0.00,Weather View 32 v70,2013-01-28 16:45:00,
2013-01-28 11:50:00,30.5,1.6,30.24,SSW,196,11.0,15.0,28,0.00,,,0.00,Weather View 32 v70,2013-01-28 16:50:00,
2013-01-28 11:55:00,30.4,2.5,30.18,SSW,203,10.0,15.0,30,0.00,,,0.00,Weather View 32 v70,2013-01-28 16:55:00,
2013-01-28 12:00:00,30.4,4.4,30.21,South,170,4.0,15.0,33,0.00,,,0.00,Weather View 32 v70,2013-01-28 17:00:00,
2013-01-28 12:05:00,30.2,6.8,30.21,SSW,197,11.0,15.0,37,0.00,,,0.00,Weather View 32 v70,2013-01-28 17:05:00,
2013-01-28 12:10:00,30.2,7.1,30.18,SSW,200,6.0,15.0,37,0.00,,,0.00,Weather View 32 v70,2013-01-28 17:10:00,
2013-01-28 12:15:00,29.8,7.3,30.18,SSW,202,9.0,15.0,38,0.00,,,0.00,Weather View 32 v70,2013-01-28 17:15:00,
2013-01-28 12:20:00,29.6,9.6,30.18,SSW,204,8.0,15.0,43,0.00,,,0.00,Weather View 32 v70,2013-01-28 17:20:00,
2013-01-28 12:25:00,29.5,10.7,30.18,SSW,210,9.0,15.0,45,0.00,,,0.00,Weather View 32 v70,2013-01-28 17:25:00,
2013-01-28 12:30:00,29.3,12.0,30.18,SSW,200,11.0,15.0,48,0.00,,,0.00,Weather View 32 v70,2013-01-28 17:30:00,
2013-01-28 12:35:00,29.3,12.2,30.18,South,190,9.0,15.0,49,0.00,,,0.00,Weather View 32 v70,2013-01-28 17:35:00,
2013-01-28 12:40:00,28.7,12.3,30.18,SSW,201,9.0,17.0,50,0.00,,,0.00,Weather View 32 v70,2013-01-28 17:40:00,
2013-01-28 12:45:00,28.4,11.7,30.18,SSW,202,17.0,19.0,49,0.00,,,0.00,Weather View 32 v70,2013-01-28 17:45:00,
2013-01-28 12:50:00,28.4,12.9,30.18,SW,217,13.0,19.0,52,0.00,,,0.00,Weather View 32 v70,2013-01-28 17:50:00,
2013-01-28 12:55:00,28.0,13.2,30.18,SSW,206,8.0,19.0,53,0.00,,,0.00,Weather View 32 v70,2013-01-28 17:55:00,
2013-01-28 13:00:00,28.6,13.9,30.15,South,175,4.0,19.0,54,0.00,,,0.00,Weather View 32 v70,2013-01-28 18:00:00,
2013-01-28 13:05:00,28.7,14.0,30.18,South,183,5.0,19.0,54,0.00,,,0.00,Weather View 32 v70,2013-01-28 18:05:00,
2013-01-28 13:10:00,29.1,14.3,30.15,South,179,5.0,19.0,54,0.00,,,0.00,Weather View 32 v70,2013-01-28 18:10:00,
2013-01-28 13:15:00,29.5,14.6,30.15,SSE,155,4.0,19.0,53,0.00,,,0.00,Weather View 32 v70,2013-01-28 18:15:00,
2013-01-28 13:20:00,29.5,14.2,30.12,SSE,157,6.0,19.0,52,0.00,,,0.00,Weather View 32 v70,2013-01-28 18:20:00,
2013-01-28 13:25:00,28.9,14.8,30.12,SSE,159,6.0,19.0,55,0.00,,,0.00,Weather View 32 v70,2013-01-28 18:25:00,
2013-01-28 13:30:00,29.8,15.9,30.12,SE,141,6.0,19.0,56,0.00,,,0.00,Weather View 32 v70,2013-01-28 18:30:00,
2013-01-28 13:35:00,29.5,15.4,30.12,ESE,112,7.0,19.0,55,0.00,,,0.00,Weather View 32 v70,2013-01-28 18:35:00,
2013-01-28 13:40:00,29.3,15.6,30.12,SSE,147,5.0,19.0,56,0.00,,,0.00,Weather View 32 v70,2013-01-28 18:40:00,
2013-01-28 13:45:00,28.7,15.8,30.12,SE,130,10.0,19.0,58,0.00,,,0.00,Weather View 32 v70,2013-01-28 18:45:00,
2013-01-28 13:50:00,28.4,15.6,30.12,SE,142,7.0,18.0,58,0.00,,,0.00,Weather View 32 v70,2013-01-28 18:50:00,
2013-01-28 13:55:00,28.9,16.7,30.12,ESE,113,8.0,14.0,60,0.00,,,0.00,Weather View 32 v70,2013-01-28 18:55:00,
2013-01-28 14:00:00,28.9,16.5,30.12,ESE,110,9.0,14.0,59,0.00,,,0.00,Weather View 32 v70,2013-01-28 19:00:00,
2013-01-28 14:05:00,29.6,17.0,30.12,SE,129,8.0,14.0,59,0.00,,,0.00,Weather View 32 v70,2013-01-28 19:05:00,
2013-01-28 14:10:00,30.0,17.0,30.12,SE,127,8.0,14.0,58,0.00,,,0.00,Weather View 32 v70,2013-01-28 19:10:00,
2013-01-28 14:15:00,29.5,16.7,30.12,SE,131,9.0,14.0,58,0.00,,,0.00,Weather View 32 v70,2013-01-28 19:15:00,
2013-01-28 14:20:00,29.1,16.9,30.09,SE,124,11.0,14.0,60,0.00,,,0.00,Weather View 32 v70,2013-01-28 19:20:00,
2013-01-28 14:25:00,29.3,17.2,30.09,ESE,123,9.0,14.0,60,0.00,,,0.00,Weather View 32 v70,2013-01-28 19:25:00,
2013-01-28 14:30:00,29.3,17.6,30.09,SE,126,10.0,14.0,61,0.00,,,0.00,Weather View 32 v70,2013-01-28 19:30:00,
2013-01-28 14:35:00,28.9,17.3,30.09,ESE,119,7.0,14.0,61,0.00,,,0.00,Weather View 32 v70,2013-01-28 19:35:00,
2013-01-28 14:40:00,29.3,17.5,30.09,SE,138,7.0,14.0,61,0.00,,,0.00,Weather View 32 v70,2013-01-28 19:40:00,
2013-01-28 14:45:00,29.3,17.4,30.09,SE,127,8.0,14.0,61,0.00,,,0.00,Weather View 32 v70,2013-01-28 19:45:00,
2013-01-28 14:50:00,29.1,16.9,30.06,SE,146,7.0,13.0,60,0.00,,,0.00,Weather View 32 v70,2013-01-28 19:50:00,
2013-01-28 14:55:00,29.6,17.7,30.06,SE,126,9.0,13.0,61,0.00,,,0.00,Weather View 32 v70,2013-01-28 19:55:00,
2013-01-28 15:00:00,29.5,17.5,30.06,SE,126,9.0,13.0,61,0.00,,,0.00,Weather View 32 v70,2013-01-28 20:00:00,
2013-01-28 15:05:00,29.6,18.1,30.06,SE,125,9.0,13.0,62,0.00,,,0.00,Weather View 32 v70,2013-01-28 20:05:00,
2013-01-28 15:10:00,29.6,17.8,30.06,SSE,154,6.0,14.0,61,0.00,,,0.00,Weather View 32 v70,2013-01-28 20:10:00,
2013-01-28 15:15:00,29.8,18.2,30.06,SE,144,5.0,14.0,62,0.00,,,0.00,Weather View 32 v70,2013-01-28 20:15:00,
2013-01-28 15:20:00,29.6,18.0,30.03,ESE,105,13.0,14.0,62,0.00,,,0.00,Weather View 32 v70,2013-01-28 20:20:00,
2013-01-28 15:25:00,29.6,18.4,30.03,SE,143,5.0,14.0,62,0.00,,,0.00,Weather View 32 v70,2013-01-28 20:25:00,
2013-01-28 15:30:00,29.6,18.8,30.03,SE,143,5.0,14.0,64,0.00,,,0.00,Weather View 32 v70,2013-01-28 20:30:00,
2013-01-28 15:35:00,29.1,18.1,30.03,SSE,167,6.0,14.0,63,0.00,,,0.00,Weather View 32 v70,2013-01-28 20:35:00,
2013-01-28 15:40:00,29.6,18.6,30.03,SE,143,5.0,14.0,63,0.00,,,0.00,Weather View 32 v70,2013-01-28 20:40:00,
2013-01-28 15:45:00,29.5,18.9,30.00,SSE,155,7.0,14.0,64,0.00,,,0.00,Weather View 32 v70,2013-01-28 20:45:00,
2013-01-28 15:50:00,29.8,19.1,30.03,SE,133,8.0,14.0,64,0.00,,,0.00,Weather View 32 v70,2013-01-28 20:50:00,
2013-01-28 15:55:00,30.4,19.3,30.03,SE,134,7.0,14.0,63,0.00,,,0.00,Weather View 32 v70,2013-01-28 20:55:00,
2013-01-28 16:00:00,30.2,18.8,30.03,SSE,150,4.0,14.0,62,0.00,,,0.00,Weather View 32 v70,2013-01-28 21:00:00,
2013-01-28 16:05:00,30.4,19.1,30.03,SSE,158,4.0,14.0,63,0.00,,,0.00,Weather View 32 v70,2013-01-28 21:05:00,
2013-01-28 16:10:00,30.2,18.8,30.03,SSE,151,4.0,14.0,62,0.00,,,0.00,Weather View 32 v70,2013-01-28 21:10:00,
2013-01-28 16:15:00,30.2,18.7,30.03,SSE,154,4.0,14.0,62,0.00,,,0.00,Weather View 32 v70,2013-01-28 21:15:00,
2013-01-28 16:20:00,30.2,18.8,30.03,SSE,161,4.0,14.0,62,0.00,,,0.00,Weather View 32 v70,2013-01-28 21:20:00,
2013-01-28 16:25:00,30.9,19.4,30.00,ESE,120,6.0,14.0,62,0.00,,,0.00,Weather View 32 v70,2013-01-28 21:25:00,
2013-01-28 16:30:00,30.7,18.9,30.03,SE,142,6.0,14.0,61,0.00,,,0.00,Weather View 32 v70,2013-01-28 21:30:00,
2013-01-28 16:35:00,31.3,19.2,30.00,ESE,119,6.0,14.0,61,0.00,,,0.00,Weather View 32 v70,2013-01-28 21:35:00,
2013-01-28 16:40:00,31.4,19.4,30.03,SE,138,3.0,14.0,61,0.00,,,0.00,Weather View 32 v70,2013-01-28 21:40:00,
2013-01-28 16:45:00,31.8,19.3,30.03,ESE,117,3.0,13.0,60,0.00,,,0.00,Weather View 32 v70,2013-01-28 21:45:00,
2013-01-28 16:50:00,32.3,19.4,30.03,ESE,105,2.0,11.0,59,0.00,,,0.00,Weather View 32 v70,2013-01-28 21:50:00,
2013-01-28 16:55:00,32.5,19.2,30.00,ESE,102,4.0,11.0,58,0.00,,,0.00,Weather View 32 v70,2013-01-28 21:55:00,
2013-01-28 17:00:00,32.2,18.5,30.00,ESE,119,5.0,11.0,57,0.00,,,0.00,Weather View 32 v70,2013-01-28 22:00:00,
2013-01-28 17:05:00,31.4,18.8,30.00,SE,126,7.0,10.0,59,0.00,,,0.00,Weather View 32 v70,2013-01-28 22:05:00,
2013-01-28 17:10:00,31.4,19.1,30.00,SE,131,6.0,10.0,60,0.00,,,0.00,Weather View 32 v70,2013-01-28 22:10:00,
2013-01-28 17:15:00,31.6,19.6,30.00,ESE,123,5.0,10.0,61,0.00,,,0.00,Weather View 32 v70,2013-01-28 22:15:00,
2013-01-28 17:20:00,31.8,19.4,30.03,ESE,123,5.0,10.0,60,0.00,,,0.00,Weather View 32 v70,2013-01-28 22:20:00,
2013-01-28 17:25:00,32.2,19.8,30.00,ESE,106,3.0,10.0,60,0.00,,,0.00,Weather View 32 v70,2013-01-28 22:25:00,
2013-01-28 17:30:00,32.7,19.5,30.00,ESE,108,4.0,9.0,58,0.00,,,0.00,Weather View 32 v70,2013-01-28 22:30:00,
2013-01-28 17:35:00,32.2,19.3,30.00,ESE,104,5.0,9.0,59,0.00,,,0.00,Weather View 32 v70,2013-01-28 22:35:00,
2013-01-28 17:40:00,32.7,19.6,30.00,ESE,106,3.0,8.0,58,0.00,,,0.00,Weather View 32 v70,2013-01-28 22:40:00,
2013-01-28 17:45:00,32.9,19.3,30.00,ESE,103,4.0,8.0,57,0.00,,,0.00,Weather View 32 v70,2013-01-28 22:45:00,
2013-01-28 17:50:00,32.3,19.0,30.00,ESE,114,6.0,8.0,57,0.00,,,0.00,Weather View 32 v70,2013-01-28 22:50:00,
2013-01-28 17:55:00,32.3,19.6,29.97,ESE,115,4.0,8.0,59,0.00,,,0.00,Weather View 32 v70,2013-01-28 22:55:00,
2013-01-28 18:00:00,31.6,19.4,30.00,ESE,120,6.0,8.0,60,0.00,,,0.00,Weather View 32 v70,2013-01-28 23:00:00,
2013-01-28 18:05:00,32.0,20.0,29.97,SE,132,3.0,8.0,61,0.00,,,0.00,Weather View 32 v70,2013-01-28 23:05:00,
2013-01-28 18:10:00,32.3,19.5,29.97,SE,135,4.0,8.0,59,0.00,,,0.00,Weather View 32 v70,2013-01-28 23:10:00,
2013-01-28 18:15:00,32.0,19.4,29.97,ESE,123,4.0,8.0,59,0.00,,,0.00,Weather View 32 v70,2013-01-28 23:15:00,
2013-01-28 18:20:00,32.7,20.1,29.97,East,101,2.0,8.0,59,0.00,,,0.00,Weather View 32 v70,2013-01-28 23:20:00,
2013-01-28 18:25:00,32.2,18.8,29.97,SE,144,4.0,8.0,58,0.00,,,0.00,Weather View 32 v70,2013-01-28 23:25:00,
2013-01-28 18:30:00,32.5,19.8,29.97,SE,124,4.0,8.0,59,0.00,,,0.00,Weather View 32 v70,2013-01-28 23:30:00,
2013-01-28 18:35:00,32.7,19.7,29.97,ESE,119,5.0,8.0,58,0.00,,,0.00,Weather View 32 v70,2013-01-28 23:35:00,
2013-01-28 18:40:00,32.7,20.3,29.97,ESE,110,3.0,8.0,60,0.00,,,0.00,Weather View 32 v70,2013-01-28 23:40:00,
2013-01-28 18:45:00,32.9,20.2,30.00,ESE,111,3.0,8.0,59,0.00,,,0.00,Weather View 32 v70,2013-01-28 23:45:00,
2013-01-28 18:50:00,33.1,19.6,29.97,ESE,111,5.0,8.0,57,0.00,,,0.00,Weather View 32 v70,2013-01-28 23:50:00,
2013-01-28 18:55:00,32.7,19.9,29.94,East,100,5.0,8.0,59,0.00,,,0.00,Weather View 32 v70,2013-01-28 23:55:00,
2013-01-28 19:00:00,32.9,20.2,29.94,East,100,4.0,7.0,59,0.00,,,0.00,Weather View 32 v70,2013-01-29 00:00:00,
2013-01-28 19:05:00,32.5,19.8,29.94,ESE,118,5.0,7.0,59,0.00,,,0.00,Weather View 32 v70,2013-01-29 00:05:00,
2013-01-28 19:10:00,32.9,20.5,29.94,ESE,108,3.0,7.0,60,0.00,,,0.00,Weather View 32 v70,2013-01-29 00:10:00,
2013-01-28 19:15:00,33.2,20.5,29.94,ESE,120,2.0,7.0,59,0.00,,,0.00,Weather View 32 v70,2013-01-29 00:15:00,
2013-01-28 19:20:00,33.4,20.1,29.94,ESE,106,2.0,7.0,58,0.00,,,0.00,Weather View 32 v70,2013-01-29 00:20:00,
2013-01-28 19:25:00,33.6,19.8,29.94,NE,51,2.0,7.0,57,0.00,,,0.00,Weather View 32 v70,2013-01-29 00:25:00,
2013-01-28 19:30:00,33.1,19.4,29.91,East,92,2.0,7.0,57,0.00,,,0.00,Weather View 32 v70,2013-01-29 00:30:00,
2013-01-28 19:35:00,32.3,18.5,29.94,NNW,347,2.0,7.0,56,0.00,,,0.00,Weather View 32 v70,2013-01-29 00:35:00,
2013-01-28 19:40:00,32.2,18.9,29.91,North,360,1.0,7.0,58,0.00,,,0.00,Weather View 32 v70,2013-01-29 00:40:00,
2013-01-28 19:45:00,32.5,19.3,29.97,NE,42,2.0,7.0,58,0.00,,,0.00,Weather View 32 v70,2013-01-29 00:45:00,
2013-01-28 19:50:00,33.1,19.8,29.91,ENE,64,2.0,7.0,58,0.00,,,0.00,Weather View 32 v70,2013-01-29 00:50:00,
2013-01-28 19:55:00,33.1,19.8,29.91,ESE,113,5.0,6.0,58,0.00,,,0.00,Weather View 32 v70,2013-01-29 00:55:00,
2013-01-28 20:00:00,32.9,19.8,29.94,ESE,118,3.0,6.0,58,0.00,,,0.00,Weather View 32 v70,2013-01-29 01:00:00,
2013-01-28 20:05:00,33.6,20.4,29.94,ESE,105,3.0,6.0,58,0.00,,,0.00,Weather View 32 v70,2013-01-29 01:05:00,
2013-01-28 20:10:00,33.2,19.6,29.94,East,96,3.0,6.0,57,0.00,,,0.00,Weather View 32 v70,2013-01-29 01:10:00,
2013-01-28 20:15:00,33.4,19.9,29.94,ESE,107,4.0,6.0,57,0.00,,,0.00,Weather View 32 v70,2013-01-29 01:15:00,
2013-01-28 20:20:00,33.4,19.8,29.94,East,98,3.0,6.0,57,0.00,,,0.00,Weather View 32 v70,2013-01-29 01:20:00,
2013-01-28 20:25:00,33.2,19.4,29.94,ESE,111,2.0,6.0,57,0.00,,,0.00,Weather View 32 v70,2013-01-29 01:25:00,
2013-01-28 20:30:00,34.0,20.2,29.94,ESE,105,3.0,6.0,57,0.00,,,0.00,Weather View 32 v70,2013-01-29 01:30:00,
2013-01-28 20:35:00,33.8,19.9,29.94,SE,129,3.0,6.0,56,0.00,,,0.00,Weather View 32 v70,2013-01-29 01:35:00,
2013-01-28 20:40:00,34.0,19.9,29.94,ESE,113,3.0,6.0,56,0.00,,,0.00,Weather View 32 v70,2013-01-29 01:40:00,
2013-01-28 20:45:00,34.0,19.7,29.94,SE,124,3.0,6.0,56,0.00,,,0.00,Weather View 32 v70,2013-01-29 01:45:00,
2013-01-28 20:50:00,34.3,20.1,29.91,ESE,110,4.0,6.0,56,0.00,,,0.00,Weather View 32 v70,2013-01-29 01:50:00,
2013-01-28 20:55:00,34.5,20.2,29.91,ESE,113,3.0,6.0,56,0.00,,,0.00,Weather View 32 v70,2013-01-29 01:55:00,
2013-01-28 21:00:00,34.5,20.2,29.91,ESE,107,4.0,5.0,55,0.00,,,0.00,Weather View 32 v70,2013-01-29 02:00:00,
2013-01-28 21:05:00,34.0,20.1,29.91,ESE,111,5.0,6.0,57,0.00,,,0.00,Weather View 32 v70,2013-01-29 02:05:00,
2013-01-28 21:10:00,34.1,20.6,29.91,ESE,104,2.0,6.0,57,0.00,,,0.00,Weather View 32 v70,2013-01-29 02:10:00,
2013-01-28 21:15:00,34.1,19.9,29.91,ENE,72,1.0,6.0,56,0.00,,,0.00,Weather View 32 v70,2013-01-29 02:15:00,
2013-01-28 21:20:00,34.1,19.9,29.91,East,84,1.0,6.0,56,0.00,,,0.00,Weather View 32 v70,2013-01-29 02:20:00,
2013-01-28 21:25:00,33.8,19.4,29.94,ESE,116,4.0,6.0,55,0.00,,,0.00,Weather View 32 v70,2013-01-29 02:25:00,
2013-01-28 21:30:00,34.0,20.8,29.91,ESE,107,3.0,6.0,58,0.00,,,0.00,Weather View 32 v70,2013-01-29 02:30:00,
2013-01-28 21:35:00,34.3,21.0,29.91,ESE,117,1.0,6.0,58,0.00,,,0.00,Weather View 32 v70,2013-01-29 02:35:00,
2013-01-28 21:40:00,34.1,20.3,29.91,ESE,119,1.0,6.0,57,0.00,,,0.00,Weather View 32 v70,2013-01-29 02:40:00,
2013-01-28 21:45:00,33.8,19.6,29.91,SE,124,2.0,6.0,56,0.00,,,0.00,Weather View 32 v70,2013-01-29 02:45:00,
2013-01-28 21:50:00,34.3,20.2,29.91,ESE,105,3.0,6.0,56,0.00,,,0.00,Weather View 32 v70,2013-01-29 02:50:00,
2013-01-28 21:55:00,34.9,20.6,29.91,East,99,2.0,6.0,56,0.00,,,0.00,Weather View 32 v70,2013-01-29 02:55:00,
2013-01-28 22:00:00,34.9,20.3,29.91,ESE,103,2.0,6.0,55,0.00,,,0.00,Weather View 32 v70,2013-01-29 03:00:00,
2013-01-28 22:05:00,33.8,18.4,29.91,SE,137,2.0,6.0,53,0.00,,,0.00,Weather View 32 v70,2013-01-29 03:05:00,
2013-01-28 22:10:00,34.5,19.8,29.91,ESE,103,3.0,6.0,55,0.00,,,0.00,Weather View 32 v70,2013-01-29 03:10:00,
2013-01-28 22:15:00,34.5,19.9,29.91,ESE,105,3.0,6.0,55,0.00,,,0.00,Weather View 32 v70,2013-01-29 03:15:00,
2013-01-28 22:20:00,34.7,20.2,29.94,ESE,105,2.0,6.0,55,0.00,,,0.00,Weather View 32 v70,2013-01-29 03:20:00,
2013-01-28 22:25:00,34.1,19.2,29.91,SSE,157,1.0,6.0,54,0.00,,,0.00,Weather View 32 v70,2013-01-29 03:25:00,
2013-01-28 22:30:00,34.7,19.9,29.91,ESE,111,2.0,5.0,55,0.00,,,0.00,Weather View 32 v70,2013-01-29 03:30:00,
2013-01-28 22:35:00,35.0,20.0,29.94,ESE,119,3.0,5.0,54,0.00,,,0.00,Weather View 32 v70,2013-01-29 03:35:00,
2013-01-28 22:40:00,35.0,20.3,29.91,ESE,104,3.0,5.0,55,0.00,,,0.00,Weather View 32 v70,2013-01-29 03:40:00,
2013-01-28 22:45:00,35.0,20.3,29.91,ESE,102,3.0,5.0,55,0.00,,,0.00,Weather View 32 v70,2013-01-29 03:45:00,
2013-01-28 22:50:00,35.0,20.3,29.94,ESE,117,2.0,5.0,55,0.00,,,0.00,Weather View 32 v70,2013-01-29 03:50:00,
2013-01-28 22:55:00,35.2,20.4,29.91,East,98,2.0,5.0,55,0.00,,,0.00,Weather View 32 v70,2013-01-29 03:55:00,
2013-01-28 23:00:00,35.6,20.6,29.91,ESE,118,3.0,5.0,54,0.00,,,0.00,Weather View 32 v70,2013-01-29 04:00:00,
2013-01-28 23:05:00,35.0,20.3,29.91,ESE,118,3.0,5.0,55,0.00,,,0.00,Weather View 32 v70,2013-01-29 04:05:00,
2013-01-28 23:10:00,35.0,20.5,29.91,ESE,111,3.0,5.0,55,0.00,,,0.00,Weather View 32 v70,2013-01-29 04:10:00,
2013-01-28 23:15:00,34.9,20.4,29.91,East,97,3.0,4.0,55,0.00,,,0.00,Weather View 32 v70,2013-01-29 04:15:00,
2013-01-28 23:20:00,35.0,20.4,29.91,East,82,2.0,4.0,55,0.00,,,0.00,Weather View 32 v70,2013-01-29 04:20:00,
2013-01-28 23:25:00,34.7,19.7,29.91,SE,136,2.0,4.0,54,0.00,,,0.00,Weather View 32 v70,2013-01-29 04:25:00,
2013-01-28 23:30:00,35.0,20.2,29.94,ESE,108,2.0,4.0,54,0.00,,,0.00,Weather View 32 v70,2013-01-29 04:30:00,
2013-01-28 23:35:00,35.4,20.5,29.91,ESE,103,2.0,4.0,54,0.00,,,0.00,Weather View 32 v70,2013-01-29 04:35:00,
2013-01-28 23:40:00,35.0,19.8,29.91,ESE,122,1.0,4.0,53,0.00,,,0.00,Weather View 32 v70,2013-01-29 04:40:00,
2013-01-28 23:45:00,35.0,19.6,29.91,SE,126,2.0,4.0,53,0.00,,,0.00,Weather View 32 v70,2013-01-29 04:45:00,
2013-01-28 23:50:00,35.4,19.8,29.91,ESE,115,3.0,4.0,53,0.00,,,0.00,Weather View 32 v70,2013-01-29 04:50:00,
2013-01-28 23:55:00,35.0,19.7,29.91,ESE,111,4.0,4.0,53,0.00,,,0.00,Weather View 32 v70,2013-01-29 04:55:00,